Almena, Kansas
Current Conditions -  °F | °C
As of 11:53 AM on Thursday 30 Oct 2014 (Local Time) from KHLC Reporting Station
Light Rain Light Rain  
Wind Chill: 63°   Ceiling: Unl
Heat Index: 63°   Visibility: 10mi
Dew Point: 33°   Wind: 18mph
Humidity: 33%   Direction: 350°N
Pressure: 30.26"   Gusts: 26mph
Location:  39.89°N, 99.71°W
Report Text: KHLC 301653Z AUTO 35016G23KT 10SM -RA CLR 17/01 A3026 RMK AO2 RAE01B21 SLP239 P0000 T01720006
Loading
Personal Weather Stations






























Interactive Weather Map
Tropical Storm Tracking
New forecast layout! Learn more

10-Day Weather Forecast

Advertisements
Track Severe Weather on mobile